Time;durP1;ratioP1;P1;durP2;ratioP2;P2;SDS_P1;SDS_P2;PMS_P1;PMS_P2;Temp;Humidity;BMP_temperature;BMP_pressure;BME280_temperature;BME280_humidity;BME280_pressure;Samples;Min_cycle;Max_cycle;Signal;HPM_P1;HPM_P2
2023/05/19 00:03:03;;;;;;;2.73;2.20;;;15.50;59.70;;;;;;4907483;29;20491;-82
2023/05/19 00:07:00;;;;;;;3.23;2.30;;;15.40;59.50;;;;;;4881566;29;20513;-81
2023/05/19 00:10:29;;;;;;;2.30;2.10;;;15.40;59.80;;;;;;4866633;29;20507;-81
2023/05/19 00:14:10;;;;;;;;;;;;;;;;;;;;;
2023/05/19 00:17:27;;;;;;;4.50;2.10;;;15.40;60.20;;;;;;4975238;28;20455;-83
2023/05/19 00:28:30;;;;;;;2.93;2.00;;;15.40;60.30;;;;;;4953358;28;20449;-82
2023/05/19 00:32:03;;;;;;;;;;;;;;;;;;;;;
2023/05/19 00:39:33;;;;;;;2.87;1.77;;;15.20;59.70;;;;;;4866086;29;20520;-83
2023/05/19 00:43:10;;;;;;;1.70;1.50;;;15.20;60.10;;;;;;4866817;29;20519;-82
2023/05/19 00:46:43;;;;;;;;;;;;;;;;;;;;;
2023/05/19 00:50:31;;;;;;;;;;;;;;;;;;;;;
2023/05/19 00:53:36;;;;;;;2.97;2.10;;;15.10;59.50;;;;;;4885884;29;20490;-82
2023/05/19 00:56:49;;;;;;;3.10;1.80;;;15.10;59.40;;;;;;4880201;29;20465;-82
2023/05/19 01:00:28;;;;;;;3.50;1.90;;;15.20;59.20;;;;;;4874677;29;21449;-82
2023/05/19 01:03:24;;;;;;;2.77;2.00;;;15.10;60.80;;;;;;4854992;29;20492;-82
2023/05/19 01:07:30;;;;;;;;;;;;;;;;;;;;;
2023/05/19 01:10:42;;;;;;;5.23;2.00;;;15.00;61.90;;;;;;4902174;29;20467;-83
2023/05/19 01:17:23;;;;;;;3.67;2.70;;;15.00;61.90;;;;;;4948280;28;20476;-82
2023/05/19 01:24:45;;;;;;;2.30;2.20;;;14.90;63.00;;;;;;4959608;28;20454;-83
2023/05/19 01:28:15;;;;;;;2.30;2.10;;;14.80;63.20;;;;;;4878785;29;20468;-82
2023/05/19 01:31:18;;;;;;;4.63;2.13;;;14.70;63.70;;;;;;4942026;28;20467;-83
2023/05/19 01:34:36;;;;;;;2.57;1.90;;;14.60;64.00;;;;;;4926477;28;20488;-83
2023/05/19 01:41:17;;;;;;;;;;;;;;;;;;;;;
2023/05/19 01:45:05;;;;;;;2.73;2.17;;;14.80;64.40;;;;;;4902711;29;20467;-83
2023/05/19 01:51:33;;;;;;;2.60;2.13;;;14.70;64.30;;;;;;4900998;29;20968;-81
2023/05/19 01:55:22;;;;;;;5.47;1.93;;;14.70;64.90;;;;;;4901660;29;20483;-81
2023/05/19 01:58:14;;;;;;;3.20;2.50;;;14.60;65.10;;;;;;4906309;29;20483;-82
2023/05/19 02:02:10;;;;;;;2.80;2.13;;;14.60;65.20;;;;;;4897288;29;20459;-82
2023/05/19 02:10:01;;;;;;;2.67;1.83;;;14.60;65.80;;;;;;4902744;29;20985;-83
2023/05/19 02:13:29;;;;;;;5.10;2.50;;;14.50;66.30;;;;;;4888525;29;20453;-82
2023/05/19 02:16:59;;;;;;;;;;;;;;;;;;;;;
2023/05/19 02:20:14;;;;;;;;;;;;;;;;;;;;;
2023/05/19 02:26:07;;;;;;;2.10;1.90;;;14.40;66.80;;;;;;4272496;26;20471;-83
2023/05/19 02:33:10;;;;;;;3.83;2.30;;;14.20;67.70;;;;;;4908292;29;20487;-81
2023/05/19 02:36:22;;;;;;;2.90;2.17;;;14.30;68.40;;;;;;4907159;29;20570;-83
2023/05/19 02:39:45;;;;;;;3.73;2.30;;;14.20;68.60;;;;;;4897740;29;20459;-83
2023/05/19 02:43:30;;;;;;;;;;;;;;;;;;;;;
2023/05/19 02:50:22;;;;;;;3.63;2.50;;;14.10;70.10;;;;;;4841863;29;20451;-81
2023/05/19 02:53:59;;;;;;;3.80;2.80;;;14.00;70.60;;;;;;4840148;29;20561;-81
2023/05/19 02:56:54;;;;;;;3.97;2.83;;;14.10;71.00;;;;;;4838137;29;20450;-83
2023/05/19 02:59:51;;;;;;;3.67;2.87;;;14.00;71.40;;;;;;4842539;29;20568;-83
2023/05/19 03:02:42;;;;;;;6.60;2.57;;;14.00;72.10;;;;;;4862877;29;20529;-83
2023/05/19 03:05:31;;;;;;;3.40;2.67;;;14.00;72.50;;;;;;4853276;29;20457;-82
2023/05/19 03:08:09;;;;;;;2.63;2.43;;;13.90;72.70;;;;;;4861780;29;20470;-83
2023/05/19 03:10:58;;;;;;;4.33;2.60;;;13.90;73.10;;;;;;4951812;28;20448;-83
2023/05/19 03:13:38;;;;;;;2.63;2.43;;;13.90;73.30;;;;;;4972014;28;20529;-83
2023/05/19 03:16:36;;;;;;;2.40;1.97;;;13.90;73.60;;;;;;4976136;28;20455;-82
2023/05/19 03:19:33;;;;;;;4.30;2.77;;;13.90;73.60;;;;;;4974314;28;20816;-82
2023/05/19 03:22:05;;;;;;;5.27;2.40;;;13.90;73.60;;;;;;4979628;28;20464;-83
2023/05/19 03:24:40;;;;;;;3.70;2.90;;;13.90;73.70;;;;;;4956224;28;20456;-82
2023/05/19 03:27:32;;;;;;;3.10;2.80;;;13.90;74.40;;;;;;4953654;28;20818;-83
2023/05/19 03:30:09;;;;;;;2.60;2.40;;;13.90;74.70;;;;;;4966105;28;20498;-83
2023/05/19 03:32:50;;;;;;;3.43;2.70;;;14.00;75.80;;;;;;4976197;28;20519;-82
2023/05/19 03:35:43;;;;;;;2.60;2.40;;;13.90;75.20;;;;;;4963475;28;20454;-83
2023/05/19 03:38:34;;;;;;;3.20;2.60;;;14.00;75.60;;;;;;4969292;28;20441;-83
2023/05/19 03:41:43;;;;;;;2.30;2.10;;;14.00;75.90;;;;;;4958584;28;20431;-83
2023/05/19 03:44:27;;;;;;;4.77;3.70;;;14.00;76.00;;;;;;4968947;28;20467;-83
2023/05/19 03:47:10;;;;;;;6.47;2.83;;;13.90;75.90;;;;;;4974564;28;20448;-83
2023/05/19 03:50:22;;;;;;;5.40;2.53;;;14.10;75.60;;;;;;4971440;28;20463;-82
2023/05/19 03:53:07;;;;;;;5.20;2.63;;;14.00;75.30;;;;;;4985784;28;20470;-82
2023/05/19 03:55:59;;;;;;;4.20;2.47;;;14.00;74.70;;;;;;4965972;28;20464;-81
2023/05/19 03:58:43;;;;;;;3.63;2.43;;;13.80;75.00;;;;;;4914477;29;20956;-84
2023/05/19 04:05:13;;;;;;;2.73;2.20;;;13.80;75.40;;;;;;4931244;29;20477;-80
2023/05/19 04:11:35;;;;;;;3.23;2.20;;;13.60;75.00;;;;;;4869964;29;20437;-83
2023/05/19 04:14:23;;;;;;;2.70;2.07;;;13.70;74.40;;;;;;4995577;22;20589;-79
2023/05/19 04:17:10;;;;;;;2.00;1.80;;;13.70;73.90;;;;;;4978836;28;20435;-81
2023/05/19 04:19:44;;;;;;;3.30;1.73;;;13.70;72.10;;;;;;4997626;28;20475;-82
2023/05/19 04:23:00;;;;;;;4.50;1.70;;;13.70;72.00;;;;;;5017383;28;20439;-81
2023/05/19 04:25:44;;;;;;;2.53;1.80;;;13.70;73.00;;;;;;4967772;28;20456;-83
2023/05/19 04:28:37;;;;;;;;;;;;;;;;;;;;;
2023/05/19 04:31:24;;;;;;;2.80;1.80;;;13.70;70.90;;;;;;4982026;28;20483;-84
2023/05/19 04:34:32;;;;;;;5.60;1.50;;;13.80;70.90;;;;;;4967664;28;20514;-82
2023/05/19 04:37:42;;;;;;;3.43;1.77;;;14.00;70.10;;;;;;4925269;28;20835;-82
2023/05/19 04:43:43;;;;;;;2.57;1.63;;;14.00;69.00;;;;;;4966036;28;20542;-81
2023/05/19 04:50:06;;;;;;;4.00;1.80;;;13.80;69.30;;;;;;4913143;29;20593;-83
2023/05/19 04:52:57;;;;;;;2.60;2.10;;;13.80;69.40;;;;;;4907145;29;20467;-82
2023/05/19 04:56:23;;;;;;;1.60;1.50;;;13.80;71.10;;;;;;4897019;29;20451;-82
2023/05/19 04:59:45;;;;;;;2.43;1.73;;;13.80;71.90;;;;;;4910332;29;20526;-81
2023/05/19 05:02:19;;;;;;;2.57;1.63;;;13.80;71.30;;;;;;4896479;29;20522;-82
2023/05/19 05:09:53;;;;;;;2.70;1.80;;;14.10;71.50;;;;;;4911044;29;20454;-82
2023/05/19 05:13:42;;;;;;;;;;;;;;;;;;;;;
2023/05/19 05:17:31;;;;;;;5.07;2.30;;;14.20;71.30;;;;;;4881232;29;20995;-82
2023/05/19 05:20:26;;;;;;;3.27;2.30;;;14.20;70.90;;;;;;4896085;29;20449;-82
2023/05/19 05:26:42;;;;;;;6.77;2.53;;;14.30;71.40;;;;;;4926244;28;20484;-83
2023/05/19 05:30:11;;;;;;;3.00;2.03;;;14.30;71.50;;;;;;4962627;28;20455;-84
2023/05/19 05:32:58;;;;;;;2.57;2.37;;;14.10;71.60;;;;;;4877204;29;20459;-82
2023/05/19 05:35:45;;;;;;;2.87;1.90;;;14.10;71.70;;;;;;4902187;29;20448;-82
2023/05/19 05:38:44;;;;;;;3.10;2.27;;;14.30;71.40;;;;;;4896008;29;20443;-83
2023/05/19 05:41:51;;;;;;;3.30;2.40;;;14.30;71.40;;;;;;4888980;29;20963;-83
2023/05/19 05:45:05;;;;;;;5.23;2.43;;;14.20;71.60;;;;;;4912644;29;20530;-83
2023/05/19 05:48:34;;;;;;;4.27;2.37;;;14.20;71.60;;;;;;4897931;29;20694;-83
2023/05/19 05:58:39;;;;;;;2.87;2.00;;;14.50;70.60;;;;;;4873439;29;20885;-82
2023/05/19 06:01:36;;;;;;;5.03;1.93;;;14.50;69.10;;;;;;4882558;29;20470;-83
2023/05/19 06:04:10;;;;;;;1.80;1.53;;;14.60;68.10;;;;;;4919792;29;20486;-81
2023/05/19 06:06:56;;;;;;;2.23;2.00;;;14.50;67.50;;;;;;4902270;29;20872;-83
2023/05/19 06:09:29;;;;;;;2.73;2.20;;;14.40;67.90;;;;;;4913978;29;20458;-82
2023/05/19 06:12:10;;;;;;;3.00;1.90;;;14.60;67.60;;;;;;4900431;29;20455;-83
2023/05/19 06:14:43;;;;;;;6.80;2.23;;;14.60;67.40;;;;;;4902786;29;20881;-82
2023/05/19 06:17:20;;;;;;;4.53;2.53;;;14.50;67.70;;;;;;4916963;29;20529;-82
2023/05/19 06:20:27;;;;;;;2.70;2.50;;;14.60;68.40;;;;;;4932159;28;20561;-81
2023/05/19 06:29:26;;;;;;;3.07;2.30;;;14.80;67.40;;;;;;4975715;28;20495;-82
2023/05/19 06:32:31;;;;;;;2.90;2.03;;;15.00;67.00;;;;;;4955210;28;20447;-82
2023/05/19 06:35:01;;;;;;;2.50;2.03;;;14.80;66.30;;;;;;4976741;28;20488;-82
2023/05/19 06:37:58;;;;;;;;;;;;;;;;;;;;;
2023/05/19 06:41:01;;;;;;;4.10;2.30;;;15.20;65.50;;;;;;4979158;28;20503;-82
2023/05/19 06:43:56;;;;;;;1.70;1.60;;;15.30;64.60;;;;;;4939689;28;20468;-81
2023/05/19 06:46:38;;;;;;;3.17;2.13;;;15.40;64.30;;;;;;4949654;28;20460;-82
2023/05/19 06:49:28;;;;;;;6.30;2.70;;;15.40;63.50;;;;;;4984922;28;20448;-82
2023/05/19 06:52:17;;;;;;;3.53;2.27;;;15.50;64.50;;;;;;4982602;28;20460;-83
2023/05/19 06:55:01;;;;;;;;;;;;;;;;;;;;;
2023/05/19 06:58:10;;;;;;;4.70;2.30;;;15.60;63.20;;;;;;4969972;28;20543;-82
2023/05/19 07:16:38;;;;;;;3.20;1.50;;;15.80;61.40;;;;;;4844391;29;20545;-82
2023/05/19 07:19:24;;;;;;;2.87;1.40;;;15.60;61.90;;;;;;4857226;29;20461;-84
2023/05/19 07:21:59;;;;;;;3.33;1.60;;;15.80;62.00;;;;;;4856504;29;20457;-83
2023/05/19 07:24:39;;;;;;;1.90;1.70;;;15.80;61.60;;;;;;4840599;29;20472;-82
2023/05/19 07:27:36;;;;;;;2.37;1.37;;;15.70;61.70;;;;;;4845309;29;20521;-83
2023/05/19 07:30:40;;;;;;;1.93;1.47;;;15.80;61.50;;;;;;4850119;29;20449;-83
2023/05/19 07:33:28;;;;;;;7.00;1.93;;;16.20;61.40;;;;;;4889871;29;20463;-83
2023/05/19 07:36:19;;;;;;;6.33;1.53;;;16.40;59.90;;;;;;4909747;29;20473;-83
2023/05/19 07:39:04;;;;;;;5.00;1.70;;;16.40;59.40;;;;;;4905032;29;20454;-83
2023/05/19 07:42:04;;;;;;;;;;;;;;;;;;;;;
2023/05/19 07:45:07;;;;;;;3.40;1.80;;;16.70;59.20;;;;;;4929482;29;20671;-82
2023/05/19 07:48:21;;;;;;;;;;;;;;;;;;;;;
2023/05/19 07:51:08;;;;;;;5.60;2.13;;;16.80;58.70;;;;;;4944363;28;20473;-81
2023/05/19 07:54:10;;;;;;;4.90;1.60;;;17.00;58.90;;;;;;5006626;23;22181;-81
2023/05/19 07:57:01;;;;;;;3.70;1.73;;;17.50;58.40;;;;;;4974513;28;20630;-82
2023/05/19 08:00:08;;;;;;;1.73;1.50;;;17.60;57.40;;;;;;4957771;28;20619;-82
2023/05/19 08:03:11;;;;;;;2.33;1.30;;;17.90;56.90;;;;;;4967123;28;20999;-83
2023/05/19 08:05:52;;;;;;;2.23;1.43;;;18.30;56.40;;;;;;4955853;28;20487;-83
2023/05/19 08:08:34;;;;;;;2.30;1.43;;;18.20;55.50;;;;;;4974374;28;20542;-85
2023/05/19 08:11:20;;;;;;;1.83;1.43;;;19.30;54.80;;;;;;4978403;28;20463;-82
2023/05/19 08:14:38;;;;;;;2.30;1.60;;;19.50;53.20;;;;;;4956532;28;20510;-82
2023/05/19 08:17:44;;;;;;;2.77;2.40;;;19.00;53.50;;;;;;4921757;29;20442;-82
2023/05/19 08:24:21;;;;;;;2.93;1.70;;;20.10;52.00;;;;;;4966392;28;20451;-83
2023/05/19 08:39:03;;;;;;;1.43;1.33;;;26.50;39.70;;;;;;4730461;30;20484;-83
2023/05/19 08:46:17;;;;;;;3.53;1.63;;;29.00;36.40;;;;;;4980001;28;20581;-83
2023/05/19 08:50:23;;;;;;;;;;;;;;;;;;;;;
2023/05/19 09:01:06;;;;;;;1.90;1.40;;;29.80;32.70;;;;;;4912832;29;20427;-82
2023/05/19 09:06:45;;;;;;;2.43;1.50;;;30.30;32.50;;;;;;4920015;29;20522;-82
2023/05/19 09:10:21;;;;;;;3.07;1.60;;;30.90;30.50;;;;;;4912640;29;20495;-83
2023/05/19 09:13:45;;;;;;;2.40;1.73;;;30.40;30.60;;;;;;4908719;29;20466;-82
2023/05/19 09:16:51;;;;;;;1.67;1.10;;;29.80;31.20;;;;;;4923255;29;20463;-82
2023/05/19 09:27:34;;;;;;;1.57;1.47;;;29.70;31.60;;;;;;4883104;29;20453;-82
2023/05/19 09:34:15;;;;;;;1.80;1.30;;;31.10;29.70;;;;;;4866449;29;20553;-82
2023/05/19 09:45:02;;;;;;;;;;;;;;;;;;;;;
2023/05/19 09:48:54;;;;;;;3.40;1.60;;;27.50;32.10;;;;;;4771357;30;20495;-82
2023/05/19 09:52:37;;;;;;;4.87;1.60;;;28.40;32.50;;;;;;4785566;29;20445;-82
2023/05/19 09:55:34;;;;;;;4.30;1.60;;;27.00;32.80;;;;;;4824579;29;20482;-82
2023/05/19 09:58:54;;;;;;;3.63;1.10;;;27.10;33.30;;;;;;4833178;29;20451;-83
2023/05/19 10:02:24;;;;;;;3.70;1.50;;;29.10;32.00;;;;;;4917581;28;20956;-83
2023/05/19 10:05:21;;;;;;;2.80;1.37;;;29.00;30.30;;;;;;4846446;29;20615;-83
2023/05/19 10:08:36;;;;;;;1.87;1.07;;;28.10;31.90;;;;;;4878865;29;20468;-83
2023/05/19 10:11:41;;;;;;;2.03;1.60;;;27.70;32.20;;;;;;4957025;29;20580;-83
2023/05/19 10:18:29;;;;;;;2.53;1.50;;;28.30;31.90;;;;;;4921622;29;20446;-82
2023/05/19 10:21:51;;;;;;;2.73;1.80;;;27.40;32.20;;;;;;4909307;29;20447;-83
2023/05/19 10:25:38;;;;;;;2.10;0.90;;;26.60;33.50;;;;;;4888250;29;21073;-83
2023/05/19 10:29:20;;;;;;;1.83;1.37;;;26.10;34.10;;;;;;4894946;29;20534;-83
2023/05/19 10:36:00;;;;;;;2.30;1.40;;;25.50;35.50;;;;;;4919379;29;20463;-82
2023/05/19 10:39:17;;;;;;;2.00;1.30;;;26.00;34.80;;;;;;4922669;29;20449;-83
2023/05/19 10:46:21;;;;;;;1.50;1.23;;;26.60;34.80;;;;;;4919400;29;20493;-82
2023/05/19 10:54:11;;;;;;;;;;;;;;;;;;;;;
2023/05/19 11:01:43;;;;;;;2.10;1.20;;;26.90;32.40;;;;;;4871683;29;20524;-83
2023/05/19 11:09:13;;;;;;;1.50;1.40;;;25.90;34.10;;;;;;4890711;29;20539;-83
2023/05/19 11:20:00;;;;;;;1.80;1.43;;;26.30;34.10;;;;;;4905706;28;20467;-82
2023/05/19 11:23:38;;;;;;;1.80;1.23;;;26.70;33.10;;;;;;4843396;29;20450;-83
2023/05/19 11:31:26;;;;;;;2.67;1.30;;;25.50;33.20;;;;;;4887525;29;20461;-83
2023/05/19 11:35:19;;;;;;;;;;;;;;;;;;;;;
2023/05/19 11:38:41;;;;;;;1.47;1.30;;;25.40;34.90;;;;;;4910157;29;20459;-83
2023/05/19 11:45:39;;;;;;;1.90;1.57;;;26.80;32.00;;;;;;4823228;29;20521;-83
2023/05/19 11:49:06;;;;;;;1.83;1.67;;;26.70;32.00;;;;;;4843759;29;20463;-84
2023/05/19 12:00:06;;;;;;;1.43;1.30;;;27.90;32.30;;;;;;4784166;29;20439;-83
2023/05/19 12:07:17;;;;;;;1.93;1.60;;;27.30;31.00;;;;;;4904182;29;20500;-82
2023/05/19 12:14:32;;;;;;;1.80;1.20;;;26.70;33.20;;;;;;4854977;29;20497;-83
2023/05/19 12:18:01;;;;;;;1.37;1.27;;;28.00;32.20;;;;;;4836306;29;20464;-82
2023/05/19 12:28:35;;;;;;;2.90;1.50;;;27.20;30.30;;;;;;4827354;29;20465;-84
2023/05/19 12:31:57;;;;;;;1.67;1.50;;;27.60;31.50;;;;;;4836294;29;20494;-82
2023/05/19 12:49:11;;;;;;;2.20;1.83;;;26.90;32.30;;;;;;4872595;29;20452;-83
2023/05/19 12:51:54;;;;;;;3.40;1.60;;;26.40;32.20;;;;;;4851116;29;20436;-85
2023/05/19 13:06:06;;;;;;;3.77;1.73;;;25.60;33.60;;;;;;4975482;28;20554;-83
2023/05/19 13:09:21;;;;;;;1.70;1.60;;;26.30;33.10;;;;;;4978336;28;20487;-82
2023/05/19 13:12:23;;;;;;;2.50;1.90;;;27.00;32.10;;;;;;4900381;29;20460;-83
2023/05/19 13:15:07;;;;;;;2.07;1.53;;;26.50;32.60;;;;;;4908750;29;20484;-83
2023/05/19 13:21:27;;;;;;;4.10;1.83;;;26.50;32.70;;;;;;4901570;29;20567;-82
2023/05/19 13:24:12;;;;;;;3.03;1.53;;;26.10;33.30;;;;;;4850738;29;20573;-83
2023/05/19 13:27:23;;;;;;;2.50;1.80;;;27.00;32.40;;;;;;4833575;29;20520;-81
2023/05/19 13:38:47;;;;;;;;;;;;;;;;;;;;;
2023/05/19 13:41:45;;;;;;;3.60;1.50;;;26.00;33.20;;;;;;4834984;29;20451;-82
2023/05/19 13:44:52;;;;;;;2.10;1.60;;;25.90;33.10;;;;;;4848091;29;20461;-83
2023/05/19 13:51:27;;;;;;;1.50;1.40;;;26.30;33.20;;;;;;4882895;29;20428;-83
2023/05/19 13:55:10;;;;;;;1.30;1.10;;;26.30;33.70;;;;;;4899530;29;20482;-83
2023/05/19 14:01:41;;;;;;;3.57;2.07;;;26.40;32.70;;;;;;4940176;29;20485;-83
2023/05/19 14:04:35;;;;;;;3.23;1.83;;;26.00;33.30;;;;;;4942101;29;20488;-83
2023/05/19 14:07:43;;;;;;;1.47;1.37;;;25.90;33.20;;;;;;4936100;29;20840;-83
2023/05/19 14:11:26;;;;;;;2.00;1.50;;;25.80;33.80;;;;;;4940378;29;20454;-82
2023/05/19 14:14:42;;;;;;;3.93;1.50;;;26.10;34.10;;;;;;4897326;29;20467;-82
2023/05/19 14:17:31;;;;;;;2.20;1.67;;;26.20;33.20;;;;;;4889196;29;20546;-81
2023/05/19 14:19:59;;;;;;;2.97;1.60;;;25.70;34.40;;;;;;4922720;29;20506;-83
2023/05/19 14:22:27;;;;;;;1.90;1.53;;;25.50;33.90;;;;;;4926405;29;20472;-81
2023/05/19 14:24:54;;;;;;;2.40;1.60;;;25.50;33.60;;;;;;4935190;29;20590;-81
2023/05/19 14:27:21;;;;;;;3.63;1.63;;;25.30;33.10;;;;;;4922803;29;20462;-82
2023/05/19 14:29:49;;;;;;;4.10;2.03;;;25.00;33.30;;;;;;4944229;29;20439;-82
2023/05/19 14:32:17;;;;;;;3.50;1.47;;;24.60;34.30;;;;;;4983312;28;20605;-81
2023/05/19 14:34:45;;;;;;;1.60;1.50;;;24.70;35.00;;;;;;5002435;28;20464;-82
2023/05/19 14:37:13;;;;;;;3.60;2.60;;;24.90;35.80;;;;;;4993857;28;20498;-81
2023/05/19 14:39:41;;;;;;;2.80;1.37;;;25.00;35.70;;;;;;4995784;28;20464;-82
2023/05/19 14:42:08;;;;;;;2.57;1.50;;;25.10;35.20;;;;;;4991667;28;20500;-82
2023/05/19 14:44:36;;;;;;;3.07;1.60;;;25.20;35.40;;;;;;4995980;28;20466;-82
2023/05/19 14:47:06;;;;;;;1.63;1.30;;;25.20;35.60;;;;;;4993940;28;20518;-83
2023/05/19 14:49:33;;;;;;;2.70;2.50;;;25.40;35.20;;;;;;4995673;28;20516;-83
2023/05/19 14:52:00;;;;;;;2.60;1.00;;;25.50;35.70;;;;;;4994387;28;20436;-83
2023/05/19 14:54:28;;;;;;;3.10;1.30;;;25.30;35.60;;;;;;4969292;28;20487;-82
2023/05/19 14:56:56;;;;;;;1.53;1.43;;;25.20;34.90;;;;;;4986273;28;20459;-82
2023/05/19 14:59:23;;;;;;;2.33;1.30;;;24.90;34.70;;;;;;4992987;28;20448;-82
2023/05/19 15:01:50;;;;;;;3.03;1.43;;;24.90;36.20;;;;;;4992345;28;20444;-81
2023/05/19 15:04:17;;;;;;;1.80;1.27;;;25.20;35.60;;;;;;4988204;28;20488;-83
2023/05/19 15:06:45;;;;;;;4.47;1.40;;;25.10;35.60;;;;;;4988667;28;20523;-82
2023/05/19 15:09:18;;;;;;;2.57;1.40;;;25.10;36.10;;;;;;4958785;28;20488;-82
2023/05/19 15:11:45;;;;;;;2.00;1.40;;;25.20;36.20;;;;;;4976215;28;20490;-82
2023/05/19 15:14:12;;;;;;;4.30;2.50;;;25.20;36.40;;;;;;4958842;28;20523;-82
2023/05/19 15:16:40;;;;;;;2.20;1.37;;;25.20;36.80;;;;;;4968563;28;20507;-82
2023/05/19 15:19:07;;;;;;;4.97;1.20;;;25.20;37.30;;;;;;4973143;28;20452;-82
2023/05/19 15:21:34;;;;;;;1.60;1.50;;;25.20;37.10;;;;;;4974215;28;21011;-82
2023/05/19 15:24:28;;;;;;;2.43;1.50;;;25.00;38.60;;;;;;4990977;23;20500;-82
2023/05/19 15:35:30;;;;;;;5.57;1.40;;;24.60;37.60;;;;;;5461008;22;22127;-82
2023/05/19 15:42:14;;;;;;;1.20;1.10;;;24.70;38.10;;;;;;4987374;28;20465;-81
2023/05/19 15:45:10;;;;;;;1.43;1.33;;;24.80;36.90;;;;;;4970145;28;20857;-82
2023/05/19 15:48:35;;;;;;;2.00;1.10;;;24.60;37.50;;;;;;4976722;28;20455;-81
2023/05/19 15:54:59;;;;;;;3.13;1.33;;;24.90;36.10;;;;;;4950333;28;20523;-83
2023/05/19 15:58:20;;;;;;;1.80;1.37;;;24.50;36.90;;;;;;4945282;28;20454;-82
2023/05/19 16:01:28;;;;;;;2.20;1.27;;;24.40;37.20;;;;;;4973238;28;20455;-82
2023/05/19 16:04:02;;;;;;;1.90;1.23;;;24.20;36.60;;;;;;4977059;28;20490;-81
2023/05/19 16:06:36;;;;;;;1.40;1.27;;;24.40;37.60;;;;;;4980157;28;20490;-82
2023/05/19 16:13:04;;;;;;;1.50;1.40;;;24.60;37.40;;;;;;4972785;28;20443;-83
2023/05/19 16:15:39;;;;;;;2.00;1.50;;;24.50;37.50;;;;;;4977926;28;20613;-83
2023/05/19 16:22:01;;;;;;;3.57;1.77;;;24.50;37.50;;;;;;4984518;28;20466;-83
2023/05/19 16:24:44;;;;;;;2.37;1.73;;;24.40;37.90;;;;;;4948326;28;20463;-83
2023/05/19 16:27:29;;;;;;;2.20;1.30;;;24.60;38.20;;;;;;4970108;28;20468;-83
2023/05/19 16:30:58;;;;;;;1.87;1.70;;;24.70;37.90;;;;;;4963461;28;20771;-83
2023/05/19 16:37:30;;;;;;;1.90;1.67;;;24.30;38.00;;;;;;4969582;28;20440;-84
2023/05/19 16:48:46;;;;;;;;;;;;;;;;;;;;;
2023/05/19 16:55:36;;;;;;;2.23;1.60;;;24.40;38.60;;;;;;5020334;23;20499;-85
2023/05/19 17:03:07;;;;;;;1.67;1.20;;;24.30;39.00;;;;;;4965668;28;20439;-82
2023/05/19 17:06:41;;;;;;;1.90;1.63;;;24.30;39.40;;;;;;4956553;28;20491;-80
2023/05/19 17:10:18;;;;;;;2.40;1.30;;;24.40;38.80;;;;;;4978420;28;20511;-83
2023/05/19 17:13:35;;;;;;;2.93;1.20;;;24.30;39.10;;;;;;4923666;29;21068;-82
2023/05/19 17:16:32;;;;;;;1.53;1.40;;;24.20;39.20;;;;;;4893587;29;20486;-83
2023/05/19 17:19:42;;;;;;;;;;;;;;;;;;;;;
2023/05/19 17:29:26;;;;;;;1.77;1.60;;;23.70;39.40;;;;;;4916927;28;20449;-83
2023/05/19 17:32:37;;;;;;;1.73;1.50;;;23.70;39.40;;;;;;4967152;28;20430;-82
2023/05/19 17:35:43;;;;;;;1.67;1.20;;;23.50;39.70;;;;;;4974165;28;20523;-83
2023/05/19 17:39:27;;;;;;;3.07;2.00;;;23.60;39.90;;;;;;4964385;28;20419;-82
2023/05/19 17:42:49;;;;;;;;;;;;;;;;;;;;;
2023/05/19 17:45:32;;;;;;;1.43;1.30;;;23.60;40.70;;;;;;5022486;23;21689;-83
2023/05/19 17:49:03;;;;;;;4.60;2.20;;;23.50;40.50;;;;;;5012777;28;20712;-82
2023/05/19 17:52:15;;;;;;;1.80;1.40;;;23.30;40.60;;;;;;5012648;28;20547;-82
2023/05/19 17:59:00;;;;;;;2.03;1.37;;;22.90;41.60;;;;;;4941626;29;20528;-84
2023/05/19 18:02:30;;;;;;;1.43;1.17;;;22.90;41.60;;;;;;4941226;28;20448;-84
2023/05/19 18:09:15;;;;;;;2.83;1.40;;;23.00;41.90;;;;;;4878679;29;20462;-83
2023/05/19 18:12:41;;;;;;;;;;;;;;;;;;;;;
2023/05/19 18:15:18;;;;;;;2.40;1.20;;;22.70;42.70;;;;;;4827535;29;20527;-83
2023/05/19 18:29:28;;;;;;;1.90;1.43;;;22.40;42.60;;;;;;4762858;30;20460;-83
2023/05/19 18:33:11;;;;;;;1.60;1.50;;;22.30;42.70;;;;;;4761010;29;20531;-83
2023/05/19 18:48:31;;;;;;;;;;;;;;;;;;;;;
2023/05/19 18:51:49;;;;;;;3.07;1.50;;;21.90;43.20;;;;;;4803784;29;21055;-84
2023/05/19 18:55:33;;;;;;;;;;;;;;;;;;;;;
2023/05/19 19:05:58;;;;;;;2.60;1.90;;;21.40;44.10;;;;;;4779369;30;20488;-83
2023/05/19 19:09:30;;;;;;;1.87;1.57;;;21.40;44.20;;;;;;4795740;29;20463;-83
2023/05/19 19:12:36;;;;;;;1.90;1.63;;;21.40;44.50;;;;;;4783090;29;21540;-81
2023/05/19 19:15:45;;;;;;;;;;;;;;;;;;;;;
2023/05/19 19:19:00;;;;;;;3.03;1.60;;;21.30;44.80;;;;;;4774233;30;20871;-84
2023/05/19 19:22:44;;;;;;;;;;;;;;;;;;;;;
2023/05/19 19:29:47;;;;;;;1.47;1.37;;;20.90;45.90;;;;;;4745162;30;20486;-83
2023/05/19 19:33:28;;;;;;;;;;;;;;;;;;;;;
2023/05/19 19:36:52;;;;;;;;;;;;;;;;;;;;;
2023/05/19 19:48:36;;;;;;;1.90;1.40;;;20.70;47.10;;;;;;4796769;29;20887;-82
2023/05/19 19:52:16;;;;;;;2.13;2.03;;;20.60;47.00;;;;;;4791651;29;20849;-83
2023/05/19 19:55:53;;;;;;;;;;;;;;;;;;;;;
2023/05/19 19:59:02;;;;;;;2.83;1.77;;;20.50;47.80;;;;;;4796029;29;20563;-83
2023/05/19 20:13:51;;;;;;;3.67;1.90;;;20.20;48.50;;;;;;4935362;28;20777;-82
2023/05/19 20:16:43;;;;;;;3.20;1.50;;;20.20;47.70;;;;;;4964354;28;20498;-83
2023/05/19 20:19:30;;;;;;;2.17;1.47;;;20.20;47.80;;;;;;4970348;28;20432;-84
2023/05/19 20:22:26;;;;;;;2.00;1.90;;;20.20;47.90;;;;;;4978406;28;20460;-82
2023/05/19 20:26:13;;;;;;;;;;;;;;;;;;;;;
2023/05/19 20:29:27;;;;;;;2.87;1.50;;;20.00;47.90;;;;;;4912352;29;20621;-82
2023/05/19 20:32:34;;;;;;;2.07;1.40;;;19.90;48.20;;;;;;4916573;29;20448;-84
2023/05/19 20:35:29;;;;;;;2.97;1.63;;;19.90;48.30;;;;;;4923923;29;20509;-83
2023/05/19 20:38:31;;;;;;;2.30;2.07;;;19.90;48.20;;;;;;4910109;29;20850;-82
2023/05/19 20:41:36;;;;;;;2.77;1.50;;;19.80;48.50;;;;;;4884591;29;20458;-82
2023/05/19 20:44:50;;;;;;;1.83;1.73;;;19.70;49.00;;;;;;4992784;28;20525;-83
2023/05/19 20:47:38;;;;;;;1.53;1.43;;;19.80;49.30;;;;;;4968867;28;20476;-82
2023/05/19 20:50:44;;;;;;;;;;;;;;;;;;;;;
2023/05/19 20:57:38;;;;;;;3.50;1.77;;;19.60;49.50;;;;;;4970011;28;20436;-83
2023/05/19 21:01:14;;;;;;;1.47;1.33;;;19.60;50.10;;;;;;4974665;28;20456;-81
2023/05/19 21:03:51;;;;;;;1.70;1.60;;;19.50;50.00;;;;;;4961526;28;20487;-83
2023/05/19 21:06:44;;;;;;;3.07;2.10;;;19.50;50.20;;;;;;4961921;28;20490;-82
2023/05/19 21:09:25;;;;;;;1.53;1.43;;;19.50;50.10;;;;;;4979379;28;20528;-82
2023/05/19 21:12:22;;;;;;;3.10;1.70;;;19.40;49.90;;;;;;4995118;28;20447;-81
2023/05/19 21:15:36;;;;;;;2.20;2.00;;;19.40;50.30;;;;;;4969590;28;20474;-82
2023/05/19 21:18:27;;;;;;;1.70;1.60;;;19.30;50.30;;;;;;4965819;28;20440;-83
2023/05/19 21:21:07;;;;;;;3.20;2.50;;;19.30;50.60;;;;;;4969604;28;20456;-83
2023/05/19 21:24:11;;;;;;;3.53;2.27;;;19.30;50.40;;;;;;4980882;28;20451;-83
2023/05/19 21:26:48;;;;;;;2.90;1.77;;;19.10;50.70;;;;;;4963153;28;20571;-82
2023/05/19 21:29:36;;;;;;;3.30;1.67;;;19.00;51.30;;;;;;4963352;28;20545;-83
2023/05/19 21:32:11;;;;;;;2.93;2.00;;;18.90;51.50;;;;;;4970793;28;20963;-83
2023/05/19 21:35:21;;;;;;;1.93;1.67;;;18.90;51.50;;;;;;4973951;28;21268;-83
2023/05/19 21:41:32;;;;;;;1.80;1.50;;;18.90;51.80;;;;;;4993375;28;20456;-82
2023/05/19 21:44:26;;;;;;;2.20;1.87;;;18.90;51.40;;;;;;4996342;28;20490;-82
2023/05/19 21:47:15;;;;;;;1.50;1.37;;;18.80;51.60;;;;;;4978342;28;20492;-82
2023/05/19 21:50:21;;;;;;;2.37;1.50;;;18.70;51.80;;;;;;4995767;28;20464;-82
2023/05/19 21:53:13;;;;;;;1.80;1.70;;;18.80;52.20;;;;;;4975108;28;20451;-82
2023/05/19 21:55:59;;;;;;;2.17;1.67;;;18.70;52.00;;;;;;4983600;28;20459;-84
2023/05/19 21:58:38;;;;;;;3.07;2.00;;;18.80;51.70;;;;;;4978345;28;20555;-82
2023/05/19 22:01:08;;;;;;;3.50;2.20;;;18.70;51.90;;;;;;4965232;28;20464;-84
2023/05/19 22:03:49;;;;;;;1.80;1.70;;;18.80;52.00;;;;;;4955857;28;20525;-83
2023/05/19 22:06:36;;;;;;;2.30;1.80;;;18.60;52.30;;;;;;4985261;28;20516;-83
2023/05/19 22:09:06;;;;;;;2.80;1.77;;;18.60;52.40;;;;;;4993697;28;20760;-82
2023/05/19 22:12:02;;;;;;;2.07;1.60;;;18.60;52.60;;;;;;4992759;28;20439;-80
2023/05/19 22:14:38;;;;;;;2.77;1.57;;;18.50;52.50;;;;;;4977734;28;20600;-81
2023/05/19 22:17:22;;;;;;;1.80;1.70;;;18.50;52.80;;;;;;4984321;28;20463;-81
2023/05/19 22:20:12;;;;;;;1.50;1.40;;;18.40;52.60;;;;;;4982830;28;20975;-80
2023/05/19 22:22:59;;;;;;;2.20;2.00;;;18.30;52.90;;;;;;4991865;28;20468;-84
2023/05/19 22:26:02;;;;;;;2.10;1.97;;;18.30;53.30;;;;;;4977470;28;20443;-81
2023/05/19 22:32:34;;;;;;;1.60;1.50;;;18.40;53.30;;;;;;4984773;28;20720;-82
2023/05/19 22:42:27;;;;;;;2.33;1.73;;;18.20;53.70;;;;;;4981140;28;20440;-84
2023/05/19 22:44:58;;;;;;;2.13;1.60;;;18.30;53.50;;;;;;5014074;23;20501;-82
2023/05/19 22:47:48;;;;;;;1.73;1.47;;;18.30;53.60;;;;;;5003827;28;20488;-84
2023/05/19 22:50:46;;;;;;;2.17;1.97;;;18.20;53.70;;;;;;5012547;28;20438;-84
2023/05/19 22:53:50;;;;;;;2.10;1.60;;;18.10;54.00;;;;;;5005019;28;20474;-83